PTAO2: Poteau River, Poteau, OK

                                SHEF ID:       PTAO2     Poteau River at Poteau, OK
STATION TYPE:
Regulating: Stage = 20.00, Flow = 7395

PRECIP STAGE RIV-FLOW VOLTAGE BAT-LOAD
in ft cfs volt volt
Ccp-Rev Ccp-Rev Ccp-Rev Ccp-Rev Ccp-Rev
(America/Chicago)
04/24 00:00 0.00 2.30 124 12.93 12.53
04/24 01:00 0.00 2.30 124 12.91 12.52
04/24 02:00 0.00 2.30 124 12.90 12.50
04/24 03:00 0.00 2.29 121 12.89 12.49
04/24 04:00 0.00 2.28 119 12.87 12.48
04/24 05:00 0.00 2.28 119 12.86 12.46
04/24 06:00 0.40 2.33 131 12.84 12.44
04/24 07:00 0.67 2.44 158 12.83 12.43
04/24 08:00 0.32 2.71 235 12.81 12.41
04/24 09:00 0.08 2.96 318 12.96 12.54
04/24 10:00 0.07 3.09 379 13.03 12.62
04/24 11:00 0.06 3.31 501 14.24 13.16
04/24 12:00 0.00 3.68 637 14.16 13.26
04/24 13:00 0.00 4.18 821 13.65 13.25
04/24 14:00 0.00 4.76 1030 13.45 13.07
04/24 15:00 0.00 5.29 1153 13.47 12.96
04/24 16:00 0.00 5.86 1256 13.56 12.99
04/24 17:00 0.00 6.65 1415 13.30 12.95
04/24 18:00 0.65 8.10 1743 13.19 12.86
04/24 19:00 0.21 9.70 2167 13.05 12.68
04/24 20:00 0.01 10.90 2587 13.03 12.63
04/24 21:00 0.00 11.71 2925 12.96 12.57
04/24 22:00 0.00 12.28 3200 12.90 12.52
04/24 23:00 0.00 12.76 3439 12.89 12.49
Data processed at Sat 25Apr2026 04:48 GMT

NOTICE: If you are parsing this page

Please convert to using our Data API. Starting early 2026 we will be migrating to: https://water.usace.army.mil with modern pages rendered in JavaScript. When this migration completes you will no longer be able to scrape this page! CWMSDataAPI (CDA)

Timeseries IDs (TSIDs)

TSIDs used from left to right in the data table
POTE.Precip-Inc.Total.1Hour.1Hour.Ccp-Rev
POTE.Stage.Inst.1Hour.0.Ccp-Rev
POTE.Flow.Inst.1Hour.0.Ccp-Rev
POTE.Volt-Battery.Inst.1Hour.0.Ccp-Rev
POTE.Volt-Battery Load.Inst.1Hour.0.Ccp-Rev

                            

All information presented herein is the property of the government of the United States of America and may be revised or deleted at any time without prior notice. Dissemination of this information without the expressed written consent of the Public Affairs Office, Tulsa District U.S. Army Corps of Engineers is strictly prohibited. These data are gathered electronically and, as presented, have NOT undergone any form of quality control. These data are NOT guaranteed to be valid or correct.